createdAt,value
2023-12-10T00:02:10.070Z,5.13
2023-12-10T00:05:16.110Z,6.85
2023-12-10T00:08:23.950Z,6.43
2023-12-10T00:11:23.792Z,6.38
2023-12-10T00:14:25.013Z,6.47
2023-12-10T00:17:32.010Z,5.63
2023-12-10T00:20:37.966Z,6.90
2023-12-10T00:23:45.993Z,7.72
2023-12-10T00:26:53.016Z,7.18
2023-12-10T00:30:00.041Z,5.53
2023-12-10T00:33:07.121Z,6.60
2023-12-10T00:36:14.040Z,6.55
2023-12-10T00:39:22.047Z,5.20
2023-12-10T00:42:28.450Z,5.65
2023-12-10T00:45:37.041Z,6.43
2023-12-10T00:48:44.092Z,6.55
2023-12-10T00:51:51.604Z,8.40
2023-12-10T00:54:58.156Z,7.20
2023-12-10T00:58:06.019Z,8.68
2023-12-10T01:01:14.121Z,6.78
2023-12-10T01:04:23.079Z,9.05
2023-12-10T01:07:29.044Z,6.50
2023-12-10T01:10:35.984Z,6.78
2023-12-10T01:13:43.062Z,9.38
2023-12-10T01:16:52.056Z,10.52
2023-12-10T01:19:59.006Z,9.68
2023-12-10T01:23:06.012Z,7.78
2023-12-10T01:26:16.062Z,9.38
2023-12-10T01:29:15.040Z,9.13
2023-12-10T01:32:25.083Z,7.10
2023-12-10T01:35:31.285Z,6.75
2023-12-10T01:38:39.038Z,8.98
2023-12-10T01:41:45.164Z,9.20
2023-12-10T01:44:52.032Z,7.90
2023-12-10T01:48:01.163Z,6.72
2023-12-10T01:51:07.025Z,7.68
2023-12-10T01:54:16.052Z,8.02
2023-12-10T01:57:22.111Z,7.68
2023-12-10T02:00:31.144Z,6.90
2023-12-10T02:03:40.199Z,10.07
2023-12-10T02:06:47.269Z,7.97
2023-12-10T02:09:54.079Z,7.82
2023-12-10T02:13:02.175Z,8.63
2023-12-10T02:16:11.074Z,7.15
2023-12-10T02:19:18.133Z,7.15
2023-12-10T02:22:25.106Z,9.32
2023-12-10T02:25:32.132Z,8.32
2023-12-10T02:28:40.046Z,5.63
2023-12-10T02:31:48.161Z,7.30
2023-12-10T02:34:54.065Z,6.30
2023-12-10T02:38:00.189Z,8.13
2023-12-10T02:41:06.108Z,6.07
2023-12-10T02:44:16.049Z,6.10
2023-12-10T02:47:23.193Z,6.03
2023-12-10T02:50:30.084Z,10.55
2023-12-10T02:53:36.089Z,8.30
2023-12-10T02:56:44.078Z,8.15
2023-12-10T02:59:53.100Z,8.05
2023-12-10T03:03:00.139Z,7.70
2023-12-10T03:06:07.104Z,6.32
2023-12-10T03:09:15.132Z,6.60
2023-12-10T03:12:21.182Z,7.43
2023-12-10T03:15:30.102Z,7.07
2023-12-10T03:18:37.289Z,7.53
2023-12-10T03:21:44.135Z,7.18
2023-12-10T03:24:54.054Z,6.03
2023-12-10T03:28:00.300Z,6.35
2023-12-10T03:31:10.152Z,5.78
2023-12-10T03:34:16.202Z,5.68
2023-12-10T03:37:24.137Z,5.13
2023-12-10T03:40:31.114Z,5.22
2023-12-10T03:43:37.234Z,4.35
2023-12-10T03:46:47.106Z,7.80
2023-12-10T03:49:54.274Z,6.10
2023-12-10T03:53:02.192Z,6.57
2023-12-10T03:56:08.129Z,7.18
2023-12-10T03:59:14.128Z,8.07
2023-12-10T04:02:23.151Z,9.23
2023-12-10T04:05:29.199Z,5.68
2023-12-10T04:08:35.128Z,7.35
2023-12-10T04:11:41.244Z,10.38
2023-12-10T04:14:47.119Z,7.75
2023-12-10T04:17:55.157Z,6.35
2023-12-10T04:21:01.146Z,6.00
2023-12-10T04:24:07.197Z,9.27
2023-12-10T04:27:15.215Z,5.13
2023-12-10T04:30:21.217Z,9.05
2023-12-10T04:33:30.333Z,7.38
2023-12-10T04:36:37.185Z,6.38
2023-12-10T04:39:43.222Z,7.55
2023-12-10T04:42:51.003Z,6.20
2023-12-10T04:45:52.028Z,5.13
2023-12-10T04:48:54.412Z,10.57
2023-12-10T04:51:55.849Z,7.00
2023-12-10T04:55:04.220Z,8.23
2023-12-10T04:58:10.178Z,10.48
2023-12-10T05:01:16.367Z,8.35
2023-12-10T05:04:27.320Z,8.63
2023-12-10T05:07:35.186Z,9.77
2023-12-10T05:10:42.238Z,11.70
2023-12-10T05:13:49.188Z,9.10
2023-12-10T05:16:55.211Z,12.02
2023-12-10T05:20:04.234Z,12.40
2023-12-10T05:23:12.207Z,9.32
2023-12-10T05:26:18.188Z,7.25
2023-12-10T05:29:25.207Z,10.63
2023-12-10T05:32:31.449Z,9.68
2023-12-10T05:35:41.212Z,8.65
2023-12-10T05:38:47.221Z,10.82
2023-12-10T05:41:54.213Z,12.80
2023-12-10T05:45:00.220Z,10.90
2023-12-10T05:48:07.276Z,15.57
2023-12-10T05:51:15.252Z,10.07
2023-12-10T05:54:22.280Z,12.40
2023-12-10T05:57:29.288Z,11.48
2023-12-10T06:00:35.433Z,12.90
2023-12-10T06:03:43.283Z,11.85
2023-12-10T06:06:50.264Z,15.57
2023-12-10T06:09:59.291Z,10.23
2023-12-10T06:13:07.349Z,14.43
2023-12-10T06:16:16.260Z,11.98
2023-12-10T06:19:22.407Z,11.20
2023-12-10T06:22:30.523Z,14.43
2023-12-10T06:25:38.233Z,19.70
2023-12-10T06:28:45.222Z,16.90
2023-12-10T06:31:52.222Z,17.75
2023-12-10T06:34:59.218Z,18.75
2023-12-10T06:38:07.382Z,19.23
2023-12-10T06:41:15.229Z,19.38
2023-12-10T06:44:24.277Z,14.90
2023-12-10T06:47:30.312Z,16.65
2023-12-10T06:50:36.288Z,21.30
2023-12-10T06:53:45.428Z,22.35
2023-12-10T06:56:53.262Z,21.05
2023-12-10T06:59:59.289Z,19.65
2023-12-10T07:03:05.279Z,22.42
2023-12-10T07:06:13.266Z,23.00
2023-12-10T07:09:22.396Z,24.83
2023-12-10T07:12:29.651Z,22.67
2023-12-10T07:15:38.372Z,20.92
2023-12-10T07:18:45.476Z,22.90
2023-12-10T07:21:52.300Z,21.65
2023-12-10T07:25:01.352Z,18.77
2023-12-10T07:28:01.149Z,26.25
2023-12-10T07:31:01.334Z,22.98
2023-12-10T07:34:07.397Z,21.33
2023-12-10T07:37:14.383Z,20.30
2023-12-10T07:40:23.297Z,25.13
2023-12-10T07:43:30.286Z,22.17
2023-12-10T07:46:36.286Z,20.98
2023-12-10T07:49:42.387Z,23.42
2023-12-10T07:52:42.142Z,21.25
2023-12-10T07:55:43.309Z,20.25
2023-12-10T07:58:50.302Z,24.23
2023-12-10T08:01:56.376Z,22.65
2023-12-10T08:05:04.412Z,23.85
2023-12-10T08:08:12.305Z,23.02
2023-12-10T08:11:20.340Z,19.80
2023-12-10T08:14:26.368Z,21.30
2023-12-10T08:17:35.134Z,26.27
2023-12-10T08:20:43.116Z,23.33
2023-12-10T08:23:50.080Z,21.83
2023-12-10T08:26:57.114Z,24.73
2023-12-10T08:30:05.090Z,29.77
2023-12-10T08:33:11.223Z,21.85
2023-12-10T08:36:18.087Z,19.63
2023-12-10T08:39:26.137Z,18.52
2023-12-10T08:42:34.385Z,21.75
2023-12-10T08:45:42.108Z,19.15
2023-12-10T08:48:50.229Z,17.33
2023-12-10T08:51:59.112Z,13.75
2023-12-10T08:55:05.204Z,18.25
2023-12-10T08:58:14.189Z,18.13
2023-12-10T09:01:21.295Z,16.65
2023-12-10T09:04:29.513Z,16.88
2023-12-10T09:07:37.189Z,18.13
2023-12-10T09:10:43.108Z,18.95
2023-12-10T09:13:51.110Z,17.98
2023-12-10T09:16:58.106Z,21.85
2023-12-10T09:20:04.133Z,16.83
2023-12-10T09:23:10.144Z,17.48
2023-12-10T09:26:17.248Z,19.75
2023-12-10T09:29:26.093Z,18.92
2023-12-10T09:32:36.223Z,19.75
2023-12-10T09:35:43.124Z,22.60
2023-12-10T09:38:51.102Z,21.83
2023-12-10T09:41:58.106Z,16.75
2023-12-10T09:45:08.143Z,17.90
2023-12-10T09:48:16.202Z,23.25
2023-12-10T09:51:24.153Z,23.02
2023-12-10T09:54:31.345Z,21.17
2023-12-10T09:57:40.264Z,21.67
2023-12-10T10:00:50.861Z,19.88
2023-12-10T10:03:57.912Z,17.35
2023-12-10T10:07:03.926Z,19.35
2023-12-10T10:10:14.831Z,23.77
2023-12-10T10:13:24.858Z,20.15
2023-12-10T10:16:33.964Z,24.25
2023-12-10T10:19:40.951Z,26.52
2023-12-10T10:22:47.879Z,20.83
2023-12-10T10:25:54.816Z,18.85
2023-12-10T10:29:03.821Z,23.00
2023-12-10T10:32:11.829Z,21.77
2023-12-10T10:35:21.896Z,19.33
2023-12-10T10:38:23.644Z,21.70
2023-12-10T10:41:24.901Z,18.52
2023-12-10T10:44:24.949Z,17.73
2023-12-10T10:47:29.104Z,16.63
2023-12-10T10:50:37.929Z,18.88
2023-12-10T10:53:43.852Z,14.68
2023-12-10T10:56:50.869Z,14.52
2023-12-10T10:59:56.864Z,13.60
2023-12-10T11:03:06.075Z,18.73
2023-12-10T11:06:13.961Z,20.00
2023-12-10T11:09:19.911Z,15.05
2023-12-10T11:12:26.926Z,15.93
2023-12-10T11:15:41.921Z,14.35
2023-12-10T11:18:52.159Z,15.07
2023-12-10T11:21:58.884Z,17.88
2023-12-10T11:25:07.897Z,15.63
2023-12-10T11:28:14.918Z,21.77
2023-12-10T11:31:21.887Z,17.50
2023-12-10T11:34:31.962Z,18.67
2023-12-10T11:37:37.921Z,15.65
2023-12-10T11:40:46.896Z,14.40
2023-12-10T11:43:55.905Z,17.88
2023-12-10T11:47:00.278Z,18.92
2023-12-10T11:50:03.887Z,13.32
2023-12-10T11:53:11.912Z,12.85
2023-12-10T11:56:17.924Z,14.60
2023-12-10T11:59:24.939Z,16.88
2023-12-10T12:02:32.179Z,18.15
2023-12-10T12:05:40.923Z,14.48
2023-12-10T12:08:47.918Z,15.10
2023-12-10T12:12:03.007Z,19.92
2023-12-10T12:15:09.890Z,16.38
2023-12-10T12:18:16.983Z,15.77
2023-12-10T12:21:25.014Z,20.23
2023-12-10T12:24:31.141Z,17.35
2023-12-10T12:27:38.924Z,17.30
2023-12-10T12:30:49.205Z,15.60
2023-12-10T12:33:58.040Z,14.93
2023-12-10T12:37:08.575Z,14.90
2023-12-10T12:40:15.991Z,16.67
2023-12-10T12:43:22.659Z,16.27
2023-12-10T12:46:29.598Z,17.77
2023-12-10T12:49:35.625Z,18.95
2023-12-10T12:52:50.413Z,18.63
2023-12-10T12:55:59.617Z,21.52
2023-12-10T12:59:05.623Z,24.08
2023-12-10T13:02:21.632Z,18.92
2023-12-10T13:05:28.700Z,20.08
2023-12-10T13:08:36.673Z,14.25
2023-12-10T13:11:47.712Z,20.73
2023-12-10T13:15:04.602Z,16.50
2023-12-10T13:18:12.002Z,21.83
2023-12-10T13:21:19.763Z,18.23
2023-12-10T13:24:30.672Z,19.77
2023-12-10T13:28:00.621Z,22.77
2023-12-10T13:31:06.612Z,22.23
2023-12-10T13:34:13.763Z,16.92
2023-12-10T13:37:21.632Z,17.90
2023-12-10T13:40:29.625Z,21.63
2023-12-10T13:43:36.623Z,16.10
2023-12-10T13:46:54.882Z,20.83
2023-12-10T13:50:01.711Z,16.85
2023-12-10T13:53:01.629Z,16.20
2023-12-10T13:56:11.729Z,21.83
2023-12-10T13:59:17.721Z,19.70
2023-12-10T14:02:24.644Z,21.13
2023-12-10T14:05:32.717Z,16.13
2023-12-10T14:08:40.675Z,17.08
2023-12-10T14:11:48.647Z,19.10
2023-12-10T14:14:54.652Z,18.77
2023-12-10T14:18:00.740Z,19.00
2023-12-10T14:21:08.746Z,19.20
2023-12-10T14:24:15.689Z,22.35
2023-12-10T14:27:25.755Z,20.92
2023-12-10T14:30:32.769Z,15.57
2023-12-10T14:33:42.785Z,21.95
2023-12-10T14:36:49.715Z,27.17
2023-12-10T14:39:55.745Z,19.95
2023-12-10T14:43:03.875Z,23.10
2023-12-10T14:46:11.721Z,22.38
2023-12-10T14:49:20.887Z,17.35
2023-12-10T14:52:28.690Z,20.67
2023-12-10T14:55:35.699Z,19.30
2023-12-10T14:58:43.793Z,22.85
2023-12-10T15:02:01.337Z,23.60
2023-12-10T15:05:14.692Z,20.05
2023-12-10T15:08:23.727Z,23.92
2023-12-10T15:11:30.729Z,20.50
2023-12-10T15:14:39.747Z,20.92
2023-12-10T15:17:46.810Z,19.08
2023-12-10T15:20:53.674Z,25.88
2023-12-10T15:24:00.716Z,23.10
2023-12-10T15:27:07.697Z,23.08
2023-12-10T15:30:17.699Z,20.13
2023-12-10T15:33:25.718Z,18.42
2023-12-10T15:36:31.895Z,23.63
2023-12-10T15:39:39.794Z,18.80
2023-12-10T15:42:48.802Z,19.05
2023-12-10T15:45:57.743Z,23.85
2023-12-10T15:49:05.979Z,17.95
2023-12-10T15:52:18.207Z,21.20
2023-12-10T15:55:30.759Z,20.50
2023-12-10T15:58:36.779Z,23.08
2023-12-10T16:01:44.810Z,20.73
2023-12-10T16:04:51.725Z,28.10
2023-12-10T16:08:00.235Z,27.92
2023-12-10T16:11:00.595Z,24.48
2023-12-10T16:14:00.751Z,21.52
2023-12-10T16:17:08.779Z,23.95
2023-12-10T16:20:16.975Z,18.40
2023-12-10T16:23:24.752Z,22.67
2023-12-10T16:26:32.763Z,21.80
2023-12-10T16:29:38.754Z,21.90
2023-12-10T16:32:47.148Z,23.20
2023-12-10T16:35:54.741Z,21.23
2023-12-10T16:39:01.739Z,20.50
2023-12-10T16:42:08.750Z,22.90
2023-12-10T16:45:14.764Z,23.30
2023-12-10T16:48:22.865Z,22.15
2023-12-10T16:51:30.909Z,18.70
2023-12-10T16:54:38.962Z,19.85
2023-12-10T16:57:46.874Z,22.95
2023-12-10T17:00:53.920Z,23.00
2023-12-10T17:04:02.825Z,17.48
2023-12-10T17:07:09.838Z,19.42
2023-12-10T17:10:15.771Z,20.42
2023-12-10T17:13:23.902Z,19.52
2023-12-10T17:16:30.859Z,20.33
2023-12-10T17:19:38.899Z,25.92
2023-12-10T17:22:46.800Z,19.35
2023-12-10T17:25:53.798Z,20.98
2023-12-10T17:28:59.777Z,22.50
2023-12-10T17:32:05.813Z,16.80
2023-12-10T17:35:13.775Z,23.50
2023-12-10T17:38:20.791Z,22.10
2023-12-10T17:41:28.790Z,17.40
2023-12-10T17:44:43.546Z,24.08
2023-12-10T17:47:56.853Z,20.10
2023-12-10T17:51:09.896Z,21.75
2023-12-10T17:54:25.812Z,20.67
2023-12-10T17:57:32.158Z,21.00
2023-12-10T18:00:39.978Z,21.55
2023-12-10T18:03:46.919Z,20.60
2023-12-10T18:06:56.857Z,18.98
2023-12-10T18:10:04.870Z,18.17
2023-12-10T18:13:10.884Z,21.40
2023-12-10T18:16:16.856Z,16.38
2023-12-10T18:19:23.990Z,19.27
2023-12-10T18:22:34.046Z,20.73
2023-12-10T18:25:41.860Z,18.70
2023-12-10T18:28:48.823Z,17.10
2023-12-10T18:31:48.860Z,19.00
2023-12-10T18:34:57.842Z,21.00
2023-12-10T18:37:58.618Z,14.50
2023-12-10T18:40:57.836Z,16.02
2023-12-10T18:44:03.872Z,17.23
2023-12-10T18:47:12.848Z,19.05
2023-12-10T18:50:19.865Z,17.88
2023-12-10T18:53:27.857Z,17.40
2023-12-10T18:56:34.963Z,13.98
2023-12-10T18:59:42.825Z,15.98
2023-12-10T19:02:49.913Z,16.65
2023-12-10T19:05:55.853Z,13.93
2023-12-10T19:09:03.826Z,13.85
2023-12-10T19:12:10.950Z,22.05
2023-12-10T19:15:21.649Z,14.27
2023-12-10T19:18:27.974Z,12.30
2023-12-10T19:21:36.895Z,18.88
2023-12-10T19:24:45.919Z,15.10
2023-12-10T19:27:51.931Z,20.27
2023-12-10T19:31:01.987Z,16.80
2023-12-10T19:34:09.009Z,13.38
2023-12-10T19:37:15.962Z,19.50
2023-12-10T19:40:24.865Z,15.10
2023-12-10T19:43:24.901Z,13.70
2023-12-10T19:46:24.796Z,13.55
2023-12-10T19:49:23.915Z,17.33
2023-12-10T19:52:31.882Z,18.63
2023-12-10T19:55:38.915Z,17.98
2023-12-10T19:58:44.898Z,20.42
2023-12-10T20:01:50.981Z,14.02
2023-12-10T20:04:59.997Z,14.82
2023-12-10T20:08:06.986Z,13.88
2023-12-10T20:11:15.904Z,16.45
2023-12-10T20:14:21.897Z,14.07
2023-12-10T20:17:30.282Z,10.90
2023-12-10T20:20:36.928Z,16.88
2023-12-10T20:23:43.887Z,16.33
2023-12-10T20:26:57.962Z,13.98
2023-12-10T20:30:03.901Z,14.07
2023-12-10T20:33:12.095Z,14.75
2023-12-10T20:36:21.930Z,14.15
2023-12-10T20:39:29.921Z,12.75
2023-12-10T20:42:38.994Z,18.50
2023-12-10T20:45:47.007Z,17.75
2023-12-10T20:48:55.011Z,12.55
2023-12-10T20:52:03.149Z,15.25
2023-12-10T20:55:11.957Z,17.15
2023-12-10T20:58:19.949Z,13.88
2023-12-10T21:01:27.111Z,19.30
2023-12-10T21:04:34.964Z,15.35
2023-12-10T21:07:40.974Z,12.50
2023-12-10T21:10:47.933Z,13.02
2023-12-10T21:13:55.956Z,15.05
2023-12-10T21:17:04.001Z,16.40
2023-12-10T21:20:12.955Z,13.77
2023-12-10T21:23:19.028Z,12.15
2023-12-10T21:26:26.048Z,15.25
2023-12-10T21:29:33.968Z,14.07
2023-12-10T21:32:41.964Z,14.68
2023-12-10T21:35:47.996Z,12.13
2023-12-10T21:38:54.989Z,18.42
2023-12-10T21:42:01.023Z,15.80
2023-12-10T21:45:08.954Z,17.23
2023-12-10T21:48:15.162Z,15.32
2023-12-10T21:51:23.018Z,17.15
2023-12-10T21:54:30.047Z,15.80
2023-12-10T21:57:37.014Z,17.00
2023-12-10T22:00:45.080Z,12.85
2023-12-10T22:03:54.123Z,12.13
2023-12-10T22:07:01.029Z,14.20
2023-12-10T22:10:08.198Z,15.10
2023-12-10T22:13:16.055Z,14.85
2023-12-10T22:16:24.995Z,10.70
2023-12-10T22:19:31.041Z,15.70
2023-12-10T22:22:39.471Z,12.18
2023-12-10T22:25:51.010Z,13.23
2023-12-10T22:28:57.993Z,17.92
2023-12-10T22:32:06.008Z,9.13
2023-12-10T22:35:12.012Z,9.93
2023-12-10T22:38:18.058Z,10.95
2023-12-10T22:41:25.014Z,15.13
2023-12-10T22:44:31.981Z,9.45
2023-12-10T22:47:39.209Z,9.77
2023-12-10T22:50:46.115Z,14.65
2023-12-10T22:53:55.015Z,11.20
2023-12-10T22:57:01.087Z,11.15
2023-12-10T23:00:08.026Z,15.35
2023-12-10T23:03:16.091Z,9.85
2023-12-10T23:06:24.021Z,12.07
2023-12-10T23:09:30.102Z,17.50
2023-12-10T23:12:36.047Z,15.45
2023-12-10T23:15:42.113Z,18.23
2023-12-10T23:18:50.105Z,12.90
2023-12-10T23:21:57.178Z,16.55
2023-12-10T23:25:07.194Z,14.57
2023-12-10T23:28:14.898Z,14.50
2023-12-10T23:31:21.056Z,16.50
2023-12-10T23:34:29.089Z,15.52
2023-12-10T23:37:35.076Z,18.00
2023-12-10T23:40:43.063Z,15.68
2023-12-10T23:43:51.081Z,18.73
2023-12-10T23:46:58.036Z,18.48
2023-12-10T23:50:12.077Z,13.70
2023-12-10T23:53:13.582Z,16.92
2023-12-10T23:56:15.144Z,14.55
2023-12-10T23:59:22.084Z,15.40
